sensor_id;sensor_type;location;lat;lon;timestamp;temperature;humidity
48994;DHT22;34804;49.214;12.276;2023-09-30T00:01:27;16.60;80.20
48994;DHT22;34804;49.214;12.276;2023-09-30T00:03:54;16.60;79.70
48994;DHT22;34804;49.214;12.276;2023-09-30T00:06:22;16.60;79.40
48994;DHT22;34804;49.214;12.276;2023-09-30T00:08:49;16.60;78.90
48994;DHT22;34804;49.214;12.276;2023-09-30T00:11:16;16.70;78.90
48994;DHT22;34804;49.214;12.276;2023-09-30T00:13:45;16.60;78.90
48994;DHT22;34804;49.214;12.276;2023-09-30T00:16:12;16.60;78.80
48994;DHT22;34804;49.214;12.276;2023-09-30T00:18:39;16.60;78.80
48994;DHT22;34804;49.214;12.276;2023-09-30T00:21:06;16.60;78.80
48994;DHT22;34804;49.214;12.276;2023-09-30T00:23:34;16.50;79.20
48994;DHT22;34804;49.214;12.276;2023-09-30T00:26:01;16.50;79.30
48994;DHT22;34804;49.214;12.276;2023-09-30T00:28:28;16.50;79.30
48994;DHT22;34804;49.214;12.276;2023-09-30T00:30:55;16.50;79.40
48994;DHT22;34804;49.214;12.276;2023-09-30T00:33:22;16.50;79.60
48994;DHT22;34804;49.214;12.276;2023-09-30T00:35:49;16.50;79.70
48994;DHT22;34804;49.214;12.276;2023-09-30T00:38:16;16.50;79.70
48994;DHT22;34804;49.214;12.276;2023-09-30T00:40:49;16.50;79.60
48994;DHT22;34804;49.214;12.276;2023-09-30T00:43:20;16.50;79.80
48994;DHT22;34804;49.214;12.276;2023-09-30T00:45:48;16.50;80.10
48994;DHT22;34804;49.214;12.276;2023-09-30T00:48:16;16.50;80.10
48994;DHT22;34804;49.214;12.276;2023-09-30T00:50:43;16.50;80.00
48994;DHT22;34804;49.214;12.276;2023-09-30T00:53:10;16.50;80.00
48994;DHT22;34804;49.214;12.276;2023-09-30T00:55:37;16.50;80.10
48994;DHT22;34804;49.214;12.276;2023-09-30T00:58:04;16.40;80.50
48994;DHT22;34804;49.214;12.276;2023-09-30T01:00:31;16.40;80.70
48994;DHT22;34804;49.214;12.276;2023-09-30T01:02:58;16.40;80.80
48994;DHT22;34804;49.214;12.276;2023-09-30T01:05:31;16.50;80.50
48994;DHT22;34804;49.214;12.276;2023-09-30T01:07:58;16.40;81.10
48994;DHT22;34804;49.214;12.276;2023-09-30T01:10:28;16.50;81.20
48994;DHT22;34804;49.214;12.276;2023-09-30T01:12:55;16.50;81.40
48994;DHT22;34804;49.214;12.276;2023-09-30T01:15:22;16.50;81.30
48994;DHT22;34804;49.214;12.276;2023-09-30T01:17:49;16.60;81.10
48994;DHT22;34804;49.214;12.276;2023-09-30T01:20:16;16.60;81.00
48994;DHT22;34804;49.214;12.276;2023-09-30T01:22:43;16.50;81.20
48994;DHT22;34804;49.214;12.276;2023-09-30T01:25:12;16.50;81.30
48994;DHT22;34804;49.214;12.276;2023-09-30T01:27:38;16.40;81.20
48994;DHT22;34804;49.214;12.276;2023-09-30T01:30:06;16.40;81.30
48994;DHT22;34804;49.214;12.276;2023-09-30T01:32:33;16.40;81.30
48994;DHT22;34804;49.214;12.276;2023-09-30T01:35:00;16.30;81.20
48994;DHT22;34804;49.214;12.276;2023-09-30T01:37:27;16.30;81.50
48994;DHT22;34804;49.214;12.276;2023-09-30T01:39:57;16.30;81.60
48994;DHT22;34804;49.214;12.276;2023-09-30T01:42:23;16.20;81.60
48994;DHT22;34804;49.214;12.276;2023-09-30T01:44:50;16.10;82.10
48994;DHT22;34804;49.214;12.276;2023-09-30T01:47:17;16.00;82.50
48994;DHT22;34804;49.214;12.276;2023-09-30T01:49:44;16.00;82.70
48994;DHT22;34804;49.214;12.276;2023-09-30T01:52:11;16.00;82.70
48994;DHT22;34804;49.214;12.276;2023-09-30T01:54:37;16.00;82.90
48994;DHT22;34804;49.214;12.276;2023-09-30T01:57:04;15.90;82.80
48994;DHT22;34804;49.214;12.276;2023-09-30T01:59:31;15.90;83.00
48994;DHT22;34804;49.214;12.276;2023-09-30T02:01:58;15.90;83.00
48994;DHT22;34804;49.214;12.276;2023-09-30T02:04:25;15.90;83.10
48994;DHT22;34804;49.214;12.276;2023-09-30T02:06:51;15.90;83.30
48994;DHT22;34804;49.214;12.276;2023-09-30T02:09:18;15.80;83.40
48994;DHT22;34804;49.214;12.276;2023-09-30T02:11:45;15.70;83.70
48994;DHT22;34804;49.214;12.276;2023-09-30T02:14:12;15.70;84.00
48994;DHT22;34804;49.214;12.276;2023-09-30T02:16:39;15.60;84.10
48994;DHT22;34804;49.214;12.276;2023-09-30T02:19:06;15.70;84.00
48994;DHT22;34804;49.214;12.276;2023-09-30T02:21:33;15.60;84.40
48994;DHT22;34804;49.214;12.276;2023-09-30T02:24:00;15.70;84.40
48994;DHT22;34804;49.214;12.276;2023-09-30T02:26:26;15.80;84.50
48994;DHT22;34804;49.214;12.276;2023-09-30T02:28:55;15.80;84.30
48994;DHT22;34804;49.214;12.276;2023-09-30T02:31:23;15.90;84.50
48994;DHT22;34804;49.214;12.276;2023-09-30T02:33:50;15.90;84.60
48994;DHT22;34804;49.214;12.276;2023-09-30T02:36:17;15.90;84.80
48994;DHT22;34804;49.214;12.276;2023-09-30T02:38:44;16.00;84.90
48994;DHT22;34804;49.214;12.276;2023-09-30T02:41:12;16.00;84.70
48994;DHT22;34804;49.214;12.276;2023-09-30T02:43:39;15.90;84.80
48994;DHT22;34804;49.214;12.276;2023-09-30T02:46:07;15.90;85.20
48994;DHT22;34804;49.214;12.276;2023-09-30T02:48:35;16.00;85.30
48994;DHT22;34804;49.214;12.276;2023-09-30T02:51:02;15.90;85.20
48994;DHT22;34804;49.214;12.276;2023-09-30T02:53:29;16.00;84.90
48994;DHT22;34804;49.214;12.276;2023-09-30T02:55:55;16.10;84.70
48994;DHT22;34804;49.214;12.276;2023-09-30T02:58:26;16.00;84.90
48994;DHT22;34804;49.214;12.276;2023-09-30T03:00:53;16.00;84.80
48994;DHT22;34804;49.214;12.276;2023-09-30T03:03:21;16.00;84.70
48994;DHT22;34804;49.214;12.276;2023-09-30T03:05:48;16.00;84.90
48994;DHT22;34804;49.214;12.276;2023-09-30T03:08:16;16.10;85.20
48994;DHT22;34804;49.214;12.276;2023-09-30T03:10:43;16.10;85.50
48994;DHT22;34804;49.214;12.276;2023-09-30T03:13:10;16.10;85.80
48994;DHT22;34804;49.214;12.276;2023-09-30T03:15:37;16.10;85.60
48994;DHT22;34804;49.214;12.276;2023-09-30T03:18:05;16.10;85.40
48994;DHT22;34804;49.214;12.276;2023-09-30T03:20:32;16.10;85.60
48994;DHT22;34804;49.214;12.276;2023-09-30T03:22:59;16.10;85.70
48994;DHT22;34804;49.214;12.276;2023-09-30T03:25:26;16.10;85.90
48994;DHT22;34804;49.214;12.276;2023-09-30T03:27:53;16.10;85.90
48994;DHT22;34804;49.214;12.276;2023-09-30T03:30:20;16.10;85.60
48994;DHT22;34804;49.214;12.276;2023-09-30T03:32:48;16.10;85.50
48994;DHT22;34804;49.214;12.276;2023-09-30T03:35:15;16.00;85.20
48994;DHT22;34804;49.214;12.276;2023-09-30T03:37:45;16.10;85.20
48994;DHT22;34804;49.214;12.276;2023-09-30T03:40:13;16.00;85.60
48994;DHT22;34804;49.214;12.276;2023-09-30T03:42:41;16.10;85.70
48994;DHT22;34804;49.214;12.276;2023-09-30T03:45:11;16.00;86.00
48994;DHT22;34804;49.214;12.276;2023-09-30T03:47:41;16.00;86.20
48994;DHT22;34804;49.214;12.276;2023-09-30T03:50:09;16.00;86.60
48994;DHT22;34804;49.214;12.276;2023-09-30T03:52:42;16.00;86.40
48994;DHT22;34804;49.214;12.276;2023-09-30T03:55:15;15.90;86.10
48994;DHT22;34804;49.214;12.276;2023-09-30T03:57:43;15.90;86.10
48994;DHT22;34804;49.214;12.276;2023-09-30T04:00:10;15.90;86.10
48994;DHT22;34804;49.214;12.276;2023-09-30T04:02:42;15.90;86.10
48994;DHT22;34804;49.214;12.276;2023-09-30T04:05:10;15.90;86.20
48994;DHT22;34804;49.214;12.276;2023-09-30T04:07:39;15.90;86.20
48994;DHT22;34804;49.214;12.276;2023-09-30T04:10:09;15.90;86.00
48994;DHT22;34804;49.214;12.276;2023-09-30T04:12:36;15.90;86.00
48994;DHT22;34804;49.214;12.276;2023-09-30T04:15:04;16.00;85.90
48994;DHT22;34804;49.214;12.276;2023-09-30T04:17:32;15.90;86.10
48994;DHT22;34804;49.214;12.276;2023-09-30T04:19:59;15.90;86.30
48994;DHT22;34804;49.214;12.276;2023-09-30T04:22:26;15.90;86.40
48994;DHT22;34804;49.214;12.276;2023-09-30T04:24:56;15.90;86.40
48994;DHT22;34804;49.214;12.276;2023-09-30T04:27:23;15.90;86.50
48994;DHT22;34804;49.214;12.276;2023-09-30T04:29:50;15.90;86.50
48994;DHT22;34804;49.214;12.276;2023-09-30T04:32:17;15.90;86.40
48994;DHT22;34804;49.214;12.276;2023-09-30T04:34:44;15.90;86.50
48994;DHT22;34804;49.214;12.276;2023-09-30T04:37:15;15.90;86.60
48994;DHT22;34804;49.214;12.276;2023-09-30T04:39:42;15.90;86.70
48994;DHT22;34804;49.214;12.276;2023-09-30T04:42:10;15.90;86.90
48994;DHT22;34804;49.214;12.276;2023-09-30T04:44:38;15.90;86.70
48994;DHT22;34804;49.214;12.276;2023-09-30T04:47:05;16.00;86.60
48994;DHT22;34804;49.214;12.276;2023-09-30T04:49:32;15.90;86.40
48994;DHT22;34804;49.214;12.276;2023-09-30T04:51:59;16.00;86.20
48994;DHT22;34804;49.214;12.276;2023-09-30T04:54:25;16.00;86.00
48994;DHT22;34804;49.214;12.276;2023-09-30T04:56:52;16.00;86.00
48994;DHT22;34804;49.214;12.276;2023-09-30T04:59:19;16.00;86.10
48994;DHT22;34804;49.214;12.276;2023-09-30T05:01:46;16.00;86.00
48994;DHT22;34804;49.214;12.276;2023-09-30T05:04:12;16.00;86.00
48994;DHT22;34804;49.214;12.276;2023-09-30T05:06:39;16.00;86.00
48994;DHT22;34804;49.214;12.276;2023-09-30T05:09:06;16.00;85.90
48994;DHT22;34804;49.214;12.276;2023-09-30T05:11:33;16.00;86.00
48994;DHT22;34804;49.214;12.276;2023-09-30T05:14:02;16.00;86.00
48994;DHT22;34804;49.214;12.276;2023-09-30T05:16:31;16.10;85.90
48994;DHT22;34804;49.214;12.276;2023-09-30T05:18:59;16.10;85.90
48994;DHT22;34804;49.214;12.276;2023-09-30T05:21:25;16.10;86.00
48994;DHT22;34804;49.214;12.276;2023-09-30T05:23:53;16.10;86.20
48994;DHT22;34804;49.214;12.276;2023-09-30T05:26:20;16.10;86.10
48994;DHT22;34804;49.214;12.276;2023-09-30T05:28:47;16.10;86.10
48994;DHT22;34804;49.214;12.276;2023-09-30T05:31:14;16.10;86.30
48994;DHT22;34804;49.214;12.276;2023-09-30T05:33:41;16.10;86.40
48994;DHT22;34804;49.214;12.276;2023-09-30T05:36:07;16.10;86.80
48994;DHT22;34804;49.214;12.276;2023-09-30T05:38:35;16.10;87.00
48994;DHT22;34804;49.214;12.276;2023-09-30T05:41:02;16.10;87.00
48994;DHT22;34804;49.214;12.276;2023-09-30T05:43:29;16.10;87.10
48994;DHT22;34804;49.214;12.276;2023-09-30T05:45:56;16.20;87.00
48994;DHT22;34804;49.214;12.276;2023-09-30T05:48:28;16.20;87.20
48994;DHT22;34804;49.214;12.276;2023-09-30T05:50:55;16.30;86.80
48994;DHT22;34804;49.214;12.276;2023-09-30T05:53:22;16.30;86.00
48994;DHT22;34804;49.214;12.276;2023-09-30T05:55:49;16.30;86.00
48994;DHT22;34804;49.214;12.276;2023-09-30T05:58:17;16.30;86.20
48994;DHT22;34804;49.214;12.276;2023-09-30T06:00:45;16.30;86.10
48994;DHT22;34804;49.214;12.276;2023-09-30T06:03:12;16.30;85.90
48994;DHT22;34804;49.214;12.276;2023-09-30T06:05:42;16.40;85.40
48994;DHT22;34804;49.214;12.276;2023-09-30T06:08:10;16.40;85.60
48994;DHT22;34804;49.214;12.276;2023-09-30T06:10:43;16.40;85.30
48994;DHT22;34804;49.214;12.276;2023-09-30T06:13:11;16.40;85.70
48994;DHT22;34804;49.214;12.276;2023-09-30T06:15:42;16.40;85.60
48994;DHT22;34804;49.214;12.276;2023-09-30T06:18:10;16.40;85.90
48994;DHT22;34804;49.214;12.276;2023-09-30T06:20:41;16.40;86.00
48994;DHT22;34804;49.214;12.276;2023-09-30T06:23:08;16.40;86.20
48994;DHT22;34804;49.214;12.276;2023-09-30T06:25:36;16.50;86.20
48994;DHT22;34804;49.214;12.276;2023-09-30T06:28:03;16.40;85.80
48994;DHT22;34804;49.214;12.276;2023-09-30T06:30:30;16.50;85.80
48994;DHT22;34804;49.214;12.276;2023-09-30T06:33:00;16.50;85.80
48994;DHT22;34804;49.214;12.276;2023-09-30T06:35:28;16.50;85.60
48994;DHT22;34804;49.214;12.276;2023-09-30T06:38:03;16.50;85.70
48994;DHT22;34804;49.214;12.276;2023-09-30T06:40:33;16.60;85.80
48994;DHT22;34804;49.214;12.276;2023-09-30T06:43:04;16.60;85.80
48994;DHT22;34804;49.214;12.276;2023-09-30T06:45:32;16.60;85.90
48994;DHT22;34804;49.214;12.276;2023-09-30T06:47:59;16.60;85.60
48994;DHT22;34804;49.214;12.276;2023-09-30T06:50:26;16.60;86.10
48994;DHT22;34804;49.214;12.276;2023-09-30T06:52:53;16.60;85.70
48994;DHT22;34804;49.214;12.276;2023-09-30T06:55:20;16.60;85.80
48994;DHT22;34804;49.214;12.276;2023-09-30T06:57:47;16.60;86.10
48994;DHT22;34804;49.214;12.276;2023-09-30T07:00:14;16.60;86.60
48994;DHT22;34804;49.214;12.276;2023-09-30T07:02:41;16.70;86.50
48994;DHT22;34804;49.214;12.276;2023-09-30T07:05:11;16.80;86.30
48994;DHT22;34804;49.214;12.276;2023-09-30T07:07:38;16.90;86.20
48994;DHT22;34804;49.214;12.276;2023-09-30T07:10:11;17.00;85.00
48994;DHT22;34804;49.214;12.276;2023-09-30T07:12:38;17.10;84.80
48994;DHT22;34804;49.214;12.276;2023-09-30T07:15:08;17.20;85.60
48994;DHT22;34804;49.214;12.276;2023-09-30T07:17:36;17.30;85.40
48994;DHT22;34804;49.214;12.276;2023-09-30T07:20:04;17.30;85.60
48994;DHT22;34804;49.214;12.276;2023-09-30T07:22:33;17.30;86.00
48994;DHT22;34804;49.214;12.276;2023-09-30T07:25:15;17.20;84.50
48994;DHT22;34804;49.214;12.276;2023-09-30T07:27:44;17.10;85.00
48994;DHT22;34804;49.214;12.276;2023-09-30T07:30:15;17.10;84.50
48994;DHT22;34804;49.214;12.276;2023-09-30T07:32:43;17.20;85.40
48994;DHT22;34804;49.214;12.276;2023-09-30T07:35:11;17.20;84.40
48994;DHT22;34804;49.214;12.276;2023-09-30T07:37:39;17.10;84.60
48994;DHT22;34804;49.214;12.276;2023-09-30T07:40:06;17.30;85.60
48994;DHT22;34804;49.214;12.276;2023-09-30T07:42:33;17.30;84.60
48994;DHT22;34804;49.214;12.276;2023-09-30T07:45:01;17.30;84.40
48994;DHT22;34804;49.214;12.276;2023-09-30T07:47:29;17.20;84.60
48994;DHT22;34804;49.214;12.276;2023-09-30T07:49:57;17.10;85.50
48994;DHT22;34804;49.214;12.276;2023-09-30T07:52:24;17.00;85.40
48994;DHT22;34804;49.214;12.276;2023-09-30T07:54:50;17.00;84.90
48994;DHT22;34804;49.214;12.276;2023-09-30T07:57:17;17.00;85.10
48994;DHT22;34804;49.214;12.276;2023-09-30T07:59:44;16.90;84.70
48994;DHT22;34804;49.214;12.276;2023-09-30T08:02:11;16.80;85.40
48994;DHT22;34804;49.214;12.276;2023-09-30T08:04:38;16.60;86.40
48994;DHT22;34804;49.214;12.276;2023-09-30T08:07:05;16.70;86.10
48994;DHT22;34804;49.214;12.276;2023-09-30T08:09:32;16.80;85.90
48994;DHT22;34804;49.214;12.276;2023-09-30T08:11:59;16.80;86.30
48994;DHT22;34804;49.214;12.276;2023-09-30T08:14:26;16.80;86.20
48994;DHT22;34804;49.214;12.276;2023-09-30T08:16:53;16.80;85.60
48994;DHT22;34804;49.214;12.276;2023-09-30T08:19:20;16.80;85.70
48994;DHT22;34804;49.214;12.276;2023-09-30T08:21:47;16.80;85.80
48994;DHT22;34804;49.214;12.276;2023-09-30T08:24:15;16.80;85.90
48994;DHT22;34804;49.214;12.276;2023-09-30T08:26:42;16.90;85.90
48994;DHT22;34804;49.214;12.276;2023-09-30T08:29:09;16.80;85.70
48994;DHT22;34804;49.214;12.276;2023-09-30T08:31:36;16.80;85.80
48994;DHT22;34804;49.214;12.276;2023-09-30T08:34:04;16.70;86.10
48994;DHT22;34804;49.214;12.276;2023-09-30T08:36:31;16.80;86.80
48994;DHT22;34804;49.214;12.276;2023-09-30T08:38:58;16.80;86.60
48994;DHT22;34804;49.214;12.276;2023-09-30T08:41:33;16.90;86.50
48994;DHT22;34804;49.214;12.276;2023-09-30T08:44:01;16.80;86.40
48994;DHT22;34804;49.214;12.276;2023-09-30T08:46:34;16.80;87.10
48994;DHT22;34804;49.214;12.276;2023-09-30T08:49:03;16.80;85.80
48994;DHT22;34804;49.214;12.276;2023-09-30T08:51:31;16.50;86.50
48994;DHT22;34804;49.214;12.276;2023-09-30T08:53:59;16.40;86.80
48994;DHT22;34804;49.214;12.276;2023-09-30T08:56:29;16.30;87.10
48994;DHT22;34804;49.214;12.276;2023-09-30T08:58:58;16.10;88.10
48994;DHT22;34804;49.214;12.276;2023-09-30T09:01:30;15.90;88.10
48994;DHT22;34804;49.214;12.276;2023-09-30T09:03:57;15.90;88.60
48994;DHT22;34804;49.214;12.276;2023-09-30T09:06:25;15.90;88.80
48994;DHT22;34804;49.214;12.276;2023-09-30T09:08:53;15.80;88.80
48994;DHT22;34804;49.214;12.276;2023-09-30T09:11:20;15.80;89.10
48994;DHT22;34804;49.214;12.276;2023-09-30T09:13:49;15.80;89.50
48994;DHT22;34804;49.214;12.276;2023-09-30T09:16:17;15.80;89.80
48994;DHT22;34804;49.214;12.276;2023-09-30T09:18:46;15.80;89.60
48994;DHT22;34804;49.214;12.276;2023-09-30T09:21:21;15.90;89.40
48994;DHT22;34804;49.214;12.276;2023-09-30T09:23:53;15.90;89.60
48994;DHT22;34804;49.214;12.276;2023-09-30T09:26:25;16.00;88.50
48994;DHT22;34804;49.214;12.276;2023-09-30T09:29:01;16.00;88.90
48994;DHT22;34804;49.214;12.276;2023-09-30T09:31:30;16.20;88.00
48994;DHT22;34804;49.214;12.276;2023-09-30T09:33:59;16.40;88.00
48994;DHT22;34804;49.214;12.276;2023-09-30T09:36:53;16.70;88.00
48994;DHT22;34804;49.214;12.276;2023-09-30T09:39:29;16.90;87.20
48994;DHT22;34804;49.214;12.276;2023-09-30T09:41:58;16.80;86.40
48994;DHT22;34804;49.214;12.276;2023-09-30T09:44:25;16.80;86.20
48994;DHT22;34804;49.214;12.276;2023-09-30T09:46:52;16.50;85.70
48994;DHT22;34804;49.214;12.276;2023-09-30T09:49:20;16.40;87.00
48994;DHT22;34804;49.214;12.276;2023-09-30T09:51:49;16.40;87.20
48994;DHT22;34804;49.214;12.276;2023-09-30T09:54:17;16.40;87.40
48994;DHT22;34804;49.214;12.276;2023-09-30T09:56:44;16.40;87.40
48994;DHT22;34804;49.214;12.276;2023-09-30T09:59:12;16.40;87.00
48994;DHT22;34804;49.214;12.276;2023-09-30T10:01:42;16.30;86.80
48994;DHT22;34804;49.214;12.276;2023-09-30T10:04:12;16.30;86.10
48994;DHT22;34804;49.214;12.276;2023-09-30T10:06:45;16.50;86.40
48994;DHT22;34804;49.214;12.276;2023-09-30T10:09:15;16.70;85.10
48994;DHT22;34804;49.214;12.276;2023-09-30T10:11:45;17.00;84.50
48994;DHT22;34804;49.214;12.276;2023-09-30T10:14:32;17.10;84.40
48994;DHT22;34804;49.214;12.276;2023-09-30T10:17:00;17.30;83.50
48994;DHT22;34804;49.214;12.276;2023-09-30T10:19:29;17.10;83.70
48994;DHT22;34804;49.214;12.276;2023-09-30T10:24:47;16.70;85.20
48994;DHT22;34804;49.214;12.276;2023-09-30T10:29:53;17.00;84.40
48994;DHT22;34804;49.214;12.276;2023-09-30T10:32:21;17.10;84.20
48994;DHT22;34804;49.214;12.276;2023-09-30T10:34:49;17.30;83.70
48994;DHT22;34804;49.214;12.276;2023-09-30T10:37:22;17.30;83.20
48994;DHT22;34804;49.214;12.276;2023-09-30T10:39:59;17.40;83.40
48994;DHT22;34804;49.214;12.276;2023-09-30T10:43:00;17.50;81.70
48994;DHT22;34804;49.214;12.276;2023-09-30T10:51:00;17.40;81.70
48994;DHT22;34804;49.214;12.276;2023-09-30T10:53:29;17.20;82.20
48994;DHT22;34804;49.214;12.276;2023-09-30T10:55:59;17.10;82.00
48994;DHT22;34804;49.214;12.276;2023-09-30T10:58:51;17.10;82.20
48994;DHT22;34804;49.214;12.276;2023-09-30T11:01:20;17.10;82.50
48994;DHT22;34804;49.214;12.276;2023-09-30T11:03:55;17.10;82.50
48994;DHT22;34804;49.214;12.276;2023-09-30T11:06:25;17.10;82.60
48994;DHT22;34804;49.214;12.276;2023-09-30T11:08:55;17.10;82.90
48994;DHT22;34804;49.214;12.276;2023-09-30T11:11:52;17.10;83.40
48994;DHT22;34804;49.214;12.276;2023-09-30T11:14:28;17.10;84.20
48994;DHT22;34804;49.214;12.276;2023-09-30T11:17:01;16.90;84.30
48994;DHT22;34804;49.214;12.276;2023-09-30T11:19:45;17.00;84.40
48994;DHT22;34804;49.214;12.276;2023-09-30T11:22:14;17.20;85.50
48994;DHT22;34804;49.214;12.276;2023-09-30T11:24:42;17.30;84.60
48994;DHT22;34804;49.214;12.276;2023-09-30T11:27:09;17.30;82.90
48994;DHT22;34804;49.214;12.276;2023-09-30T11:29:36;17.30;82.90
48994;DHT22;34804;49.214;12.276;2023-09-30T11:32:03;17.40;81.90
48994;DHT22;34804;49.214;12.276;2023-09-30T11:34:34;17.50;81.70
48994;DHT22;34804;49.214;12.276;2023-09-30T11:37:02;17.70;81.00
48994;DHT22;34804;49.214;12.276;2023-09-30T11:39:30;17.90;79.50
48994;DHT22;34804;49.214;12.276;2023-09-30T11:41:58;18.20;79.00
48994;DHT22;34804;49.214;12.276;2023-09-30T11:44:25;18.20;77.90
48994;DHT22;34804;49.214;12.276;2023-09-30T11:47:00;18.40;77.70
48994;DHT22;34804;49.214;12.276;2023-09-30T11:49:37;18.60;77.30
48994;DHT22;34804;49.214;12.276;2023-09-30T11:52:09;18.80;77.00
48994;DHT22;34804;49.214;12.276;2023-09-30T11:54:38;18.60;77.10
48994;DHT22;34804;49.214;12.276;2023-09-30T11:57:08;18.50;77.20
48994;DHT22;34804;49.214;12.276;2023-09-30T11:59:38;18.60;78.10
48994;DHT22;34804;49.214;12.276;2023-09-30T12:02:08;18.70;77.10
48994;DHT22;34804;49.214;12.276;2023-09-30T12:04:43;18.50;75.80
48994;DHT22;34804;49.214;12.276;2023-09-30T12:07:11;18.60;75.70
48994;DHT22;34804;49.214;12.276;2023-09-30T12:09:38;18.60;75.80
48994;DHT22;34804;49.214;12.276;2023-09-30T12:12:08;18.80;75.40
48994;DHT22;34804;49.214;12.276;2023-09-30T12:14:40;18.90;74.50
48994;DHT22;34804;49.214;12.276;2023-09-30T12:17:07;19.20;73.60
48994;DHT22;34804;49.214;12.276;2023-09-30T12:19:40;19.50;73.80
48994;DHT22;34804;49.214;12.276;2023-09-30T12:22:09;20.00;72.70
48994;DHT22;34804;49.214;12.276;2023-09-30T12:24:37;20.10;69.90
48994;DHT22;34804;49.214;12.276;2023-09-30T12:27:04;20.40;68.60
48994;DHT22;34804;49.214;12.276;2023-09-30T12:29:31;20.90;67.40
48994;DHT22;34804;49.214;12.276;2023-09-30T12:31:59;21.60;64.20
48994;DHT22;34804;49.214;12.276;2023-09-30T12:34:28;21.60;64.20
48994;DHT22;34804;49.214;12.276;2023-09-30T12:36:55;20.90;64.40
48994;DHT22;34804;49.214;12.276;2023-09-30T12:39:24;21.00;66.40
48994;DHT22;34804;49.214;12.276;2023-09-30T12:41:54;20.80;65.40
48994;DHT22;34804;49.214;12.276;2023-09-30T12:44:22;20.40;66.70
48994;DHT22;34804;49.214;12.276;2023-09-30T12:46:50;20.20;66.00
48994;DHT22;34804;49.214;12.276;2023-09-30T12:49:18;20.40;65.00
48994;DHT22;34804;49.214;12.276;2023-09-30T12:51:45;20.40;64.90
48994;DHT22;34804;49.214;12.276;2023-09-30T12:54:13;20.10;66.30
48994;DHT22;34804;49.214;12.276;2023-09-30T12:56:42;19.80;66.60
48994;DHT22;34804;49.214;12.276;2023-09-30T12:59:10;19.60;67.00
48994;DHT22;34804;49.214;12.276;2023-09-30T13:01:37;19.60;66.40
48994;DHT22;34804;49.214;12.276;2023-09-30T13:04:04;19.60;68.00
48994;DHT22;34804;49.214;12.276;2023-09-30T13:06:35;19.70;67.10
48994;DHT22;34804;49.214;12.276;2023-09-30T13:09:02;19.90;68.90
48994;DHT22;34804;49.214;12.276;2023-09-30T13:11:32;19.80;69.80
48994;DHT22;34804;49.214;12.276;2023-09-30T13:14:03;19.80;69.90
48994;DHT22;34804;49.214;12.276;2023-09-30T13:16:30;19.80;70.30
48994;DHT22;34804;49.214;12.276;2023-09-30T13:18:57;19.90;70.40
48994;DHT22;34804;49.214;12.276;2023-09-30T13:21:24;19.80;69.20
48994;DHT22;34804;49.214;12.276;2023-09-30T13:23:52;19.60;71.10
48994;DHT22;34804;49.214;12.276;2023-09-30T13:26:19;19.40;70.70
48994;DHT22;34804;49.214;12.276;2023-09-30T13:28:46;19.50;72.50
48994;DHT22;34804;49.214;12.276;2023-09-30T13:31:13;19.40;70.00
48994;DHT22;34804;49.214;12.276;2023-09-30T13:33:40;19.30;71.20
48994;DHT22;34804;49.214;12.276;2023-09-30T13:36:07;19.20;70.90
48994;DHT22;34804;49.214;12.276;2023-09-30T13:38:34;19.20;70.80
48994;DHT22;34804;49.214;12.276;2023-09-30T13:41:01;19.30;72.50
48994;DHT22;34804;49.214;12.276;2023-09-30T13:43:28;19.50;71.60
48994;DHT22;34804;49.214;12.276;2023-09-30T13:45:55;19.40;70.70
48994;DHT22;34804;49.214;12.276;2023-09-30T13:48:23;19.30;70.90
48994;DHT22;34804;49.214;12.276;2023-09-30T13:50:51;19.50;71.20
48994;DHT22;34804;49.214;12.276;2023-09-30T13:53:18;19.50;71.30
48994;DHT22;34804;49.214;12.276;2023-09-30T13:55:45;19.70;71.50
48994;DHT22;34804;49.214;12.276;2023-09-30T13:58:12;19.80;70.30
48994;DHT22;34804;49.214;12.276;2023-09-30T14:00:39;19.80;70.30
48994;DHT22;34804;49.214;12.276;2023-09-30T14:03:06;19.90;70.20
48994;DHT22;34804;49.214;12.276;2023-09-30T14:05:35;19.90;69.70
48994;DHT22;34804;49.214;12.276;2023-09-30T14:08:03;20.00;69.10
48994;DHT22;34804;49.214;12.276;2023-09-30T14:10:31;20.10;68.10
48994;DHT22;34804;49.214;12.276;2023-09-30T14:13:00;20.10;68.40
48994;DHT22;34804;49.214;12.276;2023-09-30T14:15:28;20.00;66.20
48994;DHT22;34804;49.214;12.276;2023-09-30T14:17:55;19.90;66.10
48994;DHT22;34804;49.214;12.276;2023-09-30T14:20:22;19.80;66.10
48994;DHT22;34804;49.214;12.276;2023-09-30T14:22:49;19.70;66.30
48994;DHT22;34804;49.214;12.276;2023-09-30T14:25:18;19.60;66.60
48994;DHT22;34804;49.214;12.276;2023-09-30T14:27:45;19.80;66.10
48994;DHT22;34804;49.214;12.276;2023-09-30T14:30:13;19.80;66.80
48994;DHT22;34804;49.214;12.276;2023-09-30T14:32:40;19.80;67.40
48994;DHT22;34804;49.214;12.276;2023-09-30T14:35:08;19.80;66.10
48994;DHT22;34804;49.214;12.276;2023-09-30T14:37:36;19.80;66.80
48994;DHT22;34804;49.214;12.276;2023-09-30T14:40:03;19.80;66.10
48994;DHT22;34804;49.214;12.276;2023-09-30T14:42:32;19.90;65.80
48994;DHT22;34804;49.214;12.276;2023-09-30T14:44:59;19.90;65.80
48994;DHT22;34804;49.214;12.276;2023-09-30T14:47:26;19.90;66.10
48994;DHT22;34804;49.214;12.276;2023-09-30T14:49:53;19.90;66.00
48994;DHT22;34804;49.214;12.276;2023-09-30T14:52:19;20.00;66.30
48994;DHT22;34804;49.214;12.276;2023-09-30T14:54:46;20.20;66.10
48994;DHT22;34804;49.214;12.276;2023-09-30T14:57:13;20.20;65.30
48994;DHT22;34804;49.214;12.276;2023-09-30T14:59:42;20.30;65.80
48994;DHT22;34804;49.214;12.276;2023-09-30T15:02:09;20.20;65.20
48994;DHT22;34804;49.214;12.276;2023-09-30T15:04:37;19.90;65.80
48994;DHT22;34804;49.214;12.276;2023-09-30T15:07:04;19.80;66.00
48994;DHT22;34804;49.214;12.276;2023-09-30T15:09:31;19.60;67.40
48994;DHT22;34804;49.214;12.276;2023-09-30T15:11:58;19.70;66.50
48994;DHT22;34804;49.214;12.276;2023-09-30T15:14:25;19.50;67.00
48994;DHT22;34804;49.214;12.276;2023-09-30T15:16:52;19.30;67.60
48994;DHT22;34804;49.214;12.276;2023-09-30T15:19:19;19.20;68.80
48994;DHT22;34804;49.214;12.276;2023-09-30T15:21:46;19.20;70.70
48994;DHT22;34804;49.214;12.276;2023-09-30T15:24:13;19.10;69.70
48994;DHT22;34804;49.214;12.276;2023-09-30T15:26:40;19.00;70.10
48994;DHT22;34804;49.214;12.276;2023-09-30T15:29:07;18.90;71.00
48994;DHT22;34804;49.214;12.276;2023-09-30T15:31:35;18.90;70.90
48994;DHT22;34804;49.214;12.276;2023-09-30T15:34:02;18.90;71.20